sensor_id;sensor_type;location;lat;lon;timestamp;temperature;humidity
14709;DHT22;7445;50.774;4.944;2023-05-07T06:47:09;17.60;99.90
14709;DHT22;7445;50.774;4.944;2023-05-07T06:49:42;17.70;99.90
14709;DHT22;7445;50.774;4.944;2023-05-07T06:52:45;17.70;99.90
14709;DHT22;7445;50.774;4.944;2023-05-07T06:56:23;17.70;99.90
14709;DHT22;7445;50.774;4.944;2023-05-07T06:59:51;17.80;99.90
14709;DHT22;7445;50.774;4.944;2023-05-07T07:03:22;17.80;99.90
14709;DHT22;7445;50.774;4.944;2023-05-07T07:06:28;17.80;99.90
14709;DHT22;7445;50.774;4.944;2023-05-07T07:09:55;17.70;99.90
14709;DHT22;7445;50.774;4.944;2023-05-07T07:12:41;17.70;99.90
14709;DHT22;7445;50.774;4.944;2023-05-07T07:15:32;17.80;99.90
14709;DHT22;7445;50.774;4.944;2023-05-07T07:19:01;18.00;99.90
14709;DHT22;7445;50.774;4.944;2023-05-07T07:22:13;18.10;99.90
14709;DHT22;7445;50.774;4.944;2023-05-07T07:25:00;18.30;99.90
14709;DHT22;7445;50.774;4.944;2023-05-07T07:30:28;18.50;99.90
14709;DHT22;7445;50.774;4.944;2023-05-07T07:32:54;18.50;99.90
14709;DHT22;7445;50.774;4.944;2023-05-07T07:35:23;18.60;99.90
14709;DHT22;7445;50.774;4.944;2023-05-07T07:38:18;18.60;99.90
14709;DHT22;7445;50.774;4.944;2023-05-07T07:40:45;18.60;99.90
14709;DHT22;7445;50.774;4.944;2023-05-07T07:43:12;18.70;99.90
14709;DHT22;7445;50.774;4.944;2023-05-07T07:45:37;18.80;99.90
14709;DHT22;7445;50.774;4.944;2023-05-07T07:48:03;19.00;99.90
14709;DHT22;7445;50.774;4.944;2023-05-07T07:59:00;19.30;99.90
14709;DHT22;7445;50.774;4.944;2023-05-07T08:01:48;19.20;99.90
14709;DHT22;7445;50.774;4.944;2023-05-07T08:04:38;19.40;99.90
14709;DHT22;7445;50.774;4.944;2023-05-07T08:07:05;19.50;99.90
14709;DHT22;7445;50.774;4.944;2023-05-07T08:27:40;20.30;99.90
14709;DHT22;7445;50.774;4.944;2023-05-07T08:30:32;20.30;99.90
14709;DHT22;7445;50.774;4.944;2023-05-07T08:32:58;20.30;99.90
14709;DHT22;7445;50.774;4.944;2023-05-07T08:35:25;20.30;99.90
14709;DHT22;7445;50.774;4.944;2023-05-07T08:37:51;20.40;99.90
14709;DHT22;7445;50.774;4.944;2023-05-07T08:40:16;20.30;99.90
14709;DHT22;7445;50.774;4.944;2023-05-07T08:42:48;20.20;99.90
14709;DHT22;7445;50.774;4.944;2023-05-07T08:45:15;20.20;99.90
14709;DHT22;7445;50.774;4.944;2023-05-07T08:47:49;20.10;99.90
14709;DHT22;7445;50.774;4.944;2023-05-07T08:50:20;20.00;99.90
14709;DHT22;7445;50.774;4.944;2023-05-07T08:52:46;20.00;99.90
14709;DHT22;7445;50.774;4.944;2023-05-07T08:55:13;19.90;99.90
14709;DHT22;7445;50.774;4.944;2023-05-07T08:57:39;19.70;99.90
14709;DHT22;7445;50.774;4.944;2023-05-07T09:00:05;19.70;99.90
14709;DHT22;7445;50.774;4.944;2023-05-07T09:02:35;19.70;99.90
14709;DHT22;7445;50.774;4.944;2023-05-07T09:05:00;19.60;99.90
14709;DHT22;7445;50.774;4.944;2023-05-07T09:07:27;19.50;99.90
14709;DHT22;7445;50.774;4.944;2023-05-07T09:09:53;19.50;99.90
14709;DHT22;7445;50.774;4.944;2023-05-07T09:12:25;19.50;99.90
14709;DHT22;7445;50.774;4.944;2023-05-07T09:15:18;19.50;99.90
14709;DHT22;7445;50.774;4.944;2023-05-07T09:17:44;19.40;99.90
14709;DHT22;7445;50.774;4.944;2023-05-07T09:20:10;19.30;99.90
14709;DHT22;7445;50.774;4.944;2023-05-07T09:22:49;19.10;99.90
14709;DHT22;7445;50.774;4.944;2023-05-07T09:25:31;19.10;99.90
14709;DHT22;7445;50.774;4.944;2023-05-07T09:28:04;19.00;99.90
14709;DHT22;7445;50.774;4.944;2023-05-07T09:30:52;18.80;99.90
14709;DHT22;7445;50.774;4.944;2023-05-07T09:33:20;18.70;99.90
14709;DHT22;7445;50.774;4.944;2023-05-07T09:35:53;18.60;99.90
14709;DHT22;7445;50.774;4.944;2023-05-07T09:38:21;18.60;99.90
14709;DHT22;7445;50.774;4.944;2023-05-07T09:41:12;18.70;99.90
14709;DHT22;7445;50.774;4.944;2023-05-07T09:43:43;18.60;99.90
14709;DHT22;7445;50.774;4.944;2023-05-07T09:46:36;18.70;99.90
14709;DHT22;7445;50.774;4.944;2023-05-07T09:49:22;18.70;99.90
14709;DHT22;7445;50.774;4.944;2023-05-07T10:08:06;18.50;99.90
14709;DHT22;7445;50.774;4.944;2023-05-07T10:10:36;18.40;99.90
14709;DHT22;7445;50.774;4.944;2023-05-07T10:16:05;18.50;99.90
14709;DHT22;7445;50.774;4.944;2023-05-07T10:18:38;18.50;99.90
14709;DHT22;7445;50.774;4.944;2023-05-07T10:21:28;18.60;99.90
14709;DHT22;7445;50.774;4.944;2023-05-07T10:40:30;18.70;99.90
14709;DHT22;7445;50.774;4.944;2023-05-07T10:43:23;18.80;99.90
14709;DHT22;7445;50.774;4.944;2023-05-07T10:46:19;18.90;99.90
14709;DHT22;7445;50.774;4.944;2023-05-07T10:51:32;18.90;99.90
14709;DHT22;7445;50.774;4.944;2023-05-07T10:54:18;18.90;99.90
14709;DHT22;7445;50.774;4.944;2023-05-07T10:56:44;19.00;99.90
14709;DHT22;7445;50.774;4.944;2023-05-07T11:02:04;19.00;99.90
14709;DHT22;7445;50.774;4.944;2023-05-07T11:04:34;19.20;99.90
14709;DHT22;7445;50.774;4.944;2023-05-07T11:10:05;19.40;99.90
14709;DHT22;7445;50.774;4.944;2023-05-07T11:13:05;19.40;99.90
14709;DHT22;7445;50.774;4.944;2023-05-07T11:15:36;19.40;99.90
14709;DHT22;7445;50.774;4.944;2023-05-07T11:18:04;19.40;99.90
14709;DHT22;7445;50.774;4.944;2023-05-07T11:21:02;19.40;99.90
14709;DHT22;7445;50.774;4.944;2023-05-07T11:26:55;19.30;99.90
14709;DHT22;7445;50.774;4.944;2023-05-07T11:29:37;19.10;99.90
14709;DHT22;7445;50.774;4.944;2023-05-07T11:58:24;19.30;99.90
14709;DHT22;7445;50.774;4.944;2023-05-07T12:00:53;19.40;99.90
14709;DHT22;7445;50.774;4.944;2023-05-07T12:03:21;19.30;99.90
14709;DHT22;7445;50.774;4.944;2023-05-07T12:05:50;19.40;99.90
14709;DHT22;7445;50.774;4.944;2023-05-07T12:10:50;19.40;99.90
14709;DHT22;7445;50.774;4.944;2023-05-07T12:13:45;19.40;99.90
14709;DHT22;7445;50.774;4.944;2023-05-07T12:16:16;19.40;99.90
14709;DHT22;7445;50.774;4.944;2023-05-07T12:18:46;19.50;99.90
14709;DHT22;7445;50.774;4.944;2023-05-07T12:21:12;19.50;99.90
14709;DHT22;7445;50.774;4.944;2023-05-07T12:23:38;19.60;99.90
14709;DHT22;7445;50.774;4.944;2023-05-07T12:26:05;19.60;99.90
14709;DHT22;7445;50.774;4.944;2023-05-07T12:32:04;19.70;99.90
14709;DHT22;7445;50.774;4.944;2023-05-07T12:34:52;19.80;99.90
14709;DHT22;7445;50.774;4.944;2023-05-07T12:37:23;19.80;99.90
14709;DHT22;7445;50.774;4.944;2023-05-07T12:40:12;20.00;99.90
14709;DHT22;7445;50.774;4.944;2023-05-07T12:46:06;19.80;99.90
14709;DHT22;7445;50.774;4.944;2023-05-07T12:53:46;19.60;99.90
14709;DHT22;7445;50.774;4.944;2023-05-07T12:56:18;19.70;99.90
14709;DHT22;7445;50.774;4.944;2023-05-07T12:58:44;19.70;99.90
14709;DHT22;7445;50.774;4.944;2023-05-07T13:01:09;19.80;99.90
14709;DHT22;7445;50.774;4.944;2023-05-07T13:03:51;19.90;99.90
14709;DHT22;7445;50.774;4.944;2023-05-07T13:06:22;20.00;99.90
14709;DHT22;7445;50.774;4.944;2023-05-07T13:08:56;20.00;99.90
14709;DHT22;7445;50.774;4.944;2023-05-07T13:11:22;20.00;99.90
14709;DHT22;7445;50.774;4.944;2023-05-07T13:13:52;20.10;99.90
14709;DHT22;7445;50.774;4.944;2023-05-07T13:16:27;20.00;99.90
14709;DHT22;7445;50.774;4.944;2023-05-07T13:18:52;19.90;99.90
14709;DHT22;7445;50.774;4.944;2023-05-07T13:21:23;19.90;99.90
14709;DHT22;7445;50.774;4.944;2023-05-07T13:24:08;19.70;99.90
14709;DHT22;7445;50.774;4.944;2023-05-07T13:26:34;19.80;99.90
14709;DHT22;7445;50.774;4.944;2023-05-07T13:32:32;20.00;99.90
14709;DHT22;7445;50.774;4.944;2023-05-07T13:35:11;20.10;99.90
14709;DHT22;7445;50.774;4.944;2023-05-07T13:37:39;20.10;99.90
14709;DHT22;7445;50.774;4.944;2023-05-07T13:40:24;20.20;99.90
14709;DHT22;7445;50.774;4.944;2023-05-07T13:42:58;20.30;99.90
14709;DHT22;7445;50.774;4.944;2023-05-07T13:45:25;20.30;99.90
14709;DHT22;7445;50.774;4.944;2023-05-07T13:47:51;20.30;99.90
14709;DHT22;7445;50.774;4.944;2023-05-07T13:50:17;20.20;99.90
14709;DHT22;7445;50.774;4.944;2023-05-07T13:52:47;20.20;99.90
14709;DHT22;7445;50.774;4.944;2023-05-07T13:55:17;20.10;99.90
14709;DHT22;7445;50.774;4.944;2023-05-07T13:57:44;20.30;99.90
14709;DHT22;7445;50.774;4.944;2023-05-07T14:00:10;20.40;99.90
14709;DHT22;7445;50.774;4.944;2023-05-07T14:02:36;20.40;99.90
14709;DHT22;7445;50.774;4.944;2023-05-07T14:05:06;20.40;99.90
14709;DHT22;7445;50.774;4.944;2023-05-07T14:07:35;20.20;99.90
14709;DHT22;7445;50.774;4.944;2023-05-07T14:10:21;20.20;99.90
14709;DHT22;7445;50.774;4.944;2023-05-07T14:12:47;20.10;99.90
14709;DHT22;7445;50.774;4.944;2023-05-07T14:15:12;20.10;99.90
14709;DHT22;7445;50.774;4.944;2023-05-07T14:17:38;20.10;99.90
14709;DHT22;7445;50.774;4.944;2023-05-07T14:20:05;20.00;99.90
14709;DHT22;7445;50.774;4.944;2023-05-07T14:22:37;20.10;99.90
14709;DHT22;7445;50.774;4.944;2023-05-07T14:25:04;20.00;99.90
14709;DHT22;7445;50.774;4.944;2023-05-07T14:27:30;20.00;99.90
14709;DHT22;7445;50.774;4.944;2023-05-07T14:30:01;20.10;99.90
14709;DHT22;7445;50.774;4.944;2023-05-07T14:32:30;20.20;99.90
14709;DHT22;7445;50.774;4.944;2023-05-07T14:35:00;20.10;99.90
14709;DHT22;7445;50.774;4.944;2023-05-07T14:37:26;20.20;99.90
14709;DHT22;7445;50.774;4.944;2023-05-07T14:39:55;20.20;99.90
14709;DHT22;7445;50.774;4.944;2023-05-07T14:42:24;20.20;99.90
14709;DHT22;7445;50.774;4.944;2023-05-07T14:44:50;20.00;99.90
14709;DHT22;7445;50.774;4.944;2023-05-07T14:47:19;20.00;99.90
14709;DHT22;7445;50.774;4.944;2023-05-07T14:49:48;20.00;99.90
14709;DHT22;7445;50.774;4.944;2023-05-07T14:52:15;19.70;99.90
14709;DHT22;7445;50.774;4.944;2023-05-07T14:54:43;19.70;99.90
14709;DHT22;7445;50.774;4.944;2023-05-07T14:57:10;19.80;99.90
14709;DHT22;7445;50.774;4.944;2023-05-07T14:59:36;19.80;99.90
14709;DHT22;7445;50.774;4.944;2023-05-07T15:02:03;19.70;99.90
14709;DHT22;7445;50.774;4.944;2023-05-07T15:04:30;19.80;99.90
14709;DHT22;7445;50.774;4.944;2023-05-07T15:06:56;19.90;99.90
14709;DHT22;7445;50.774;4.944;2023-05-07T15:09:22;19.80;99.90
14709;DHT22;7445;50.774;4.944;2023-05-07T15:11:49;19.90;99.90
14709;DHT22;7445;50.774;4.944;2023-05-07T15:14:15;20.00;99.90
14709;DHT22;7445;50.774;4.944;2023-05-07T15:16:42;20.00;99.90
14709;DHT22;7445;50.774;4.944;2023-05-07T15:19:09;20.00;99.90
14709;DHT22;7445;50.774;4.944;2023-05-07T15:21:35;19.90;99.90
14709;DHT22;7445;50.774;4.944;2023-05-07T15:24:02;19.90;99.90
14709;DHT22;7445;50.774;4.944;2023-05-07T15:26:27;20.00;99.90
14709;DHT22;7445;50.774;4.944;2023-05-07T15:28:55;20.00;99.90
14709;DHT22;7445;50.774;4.944;2023-05-07T15:31:23;20.10;99.90
14709;DHT22;7445;50.774;4.944;2023-05-07T15:33:50;20.20;99.90
14709;DHT22;7445;50.774;4.944;2023-05-07T15:36:20;20.20;99.90
14709;DHT22;7445;50.774;4.944;2023-05-07T15:38:47;20.30;99.90
14709;DHT22;7445;50.774;4.944;2023-05-07T15:41:12;20.30;99.90
14709;DHT22;7445;50.774;4.944;2023-05-07T15:43:54;20.30;99.90
14709;DHT22;7445;50.774;4.944;2023-05-07T15:46:22;20.30;99.90
14709;DHT22;7445;50.774;4.944;2023-05-07T15:48:50;20.30;99.90
14709;DHT22;7445;50.774;4.944;2023-05-07T15:51:16;20.30;99.90
14709;DHT22;7445;50.774;4.944;2023-05-07T15:53:42;20.40;99.90
14709;DHT22;7445;50.774;4.944;2023-05-07T15:56:09;20.40;99.90
14709;DHT22;7445;50.774;4.944;2023-05-07T15:58:35;20.30;99.90
14709;DHT22;7445;50.774;4.944;2023-05-07T16:01:02;20.20;99.90
14709;DHT22;7445;50.774;4.944;2023-05-07T16:03:28;20.30;99.90
14709;DHT22;7445;50.774;4.944;2023-05-07T16:05:55;20.30;99.90
14709;DHT22;7445;50.774;4.944;2023-05-07T16:08:27;20.30;99.90
14709;DHT22;7445;50.774;4.944;2023-05-07T16:10:53;20.20;99.90
14709;DHT22;7445;50.774;4.944;2023-05-07T16:13:19;20.20;99.90
14709;DHT22;7445;50.774;4.944;2023-05-07T16:15:45;20.20;99.90
14709;DHT22;7445;50.774;4.944;2023-05-07T16:18:11;20.30;99.90
14709;DHT22;7445;50.774;4.944;2023-05-07T16:20:42;20.40;99.90
14709;DHT22;7445;50.774;4.944;2023-05-07T16:23:09;20.30;99.90
14709;DHT22;7445;50.774;4.944;2023-05-07T16:25:40;20.20;99.90
14709;DHT22;7445;50.774;4.944;2023-05-07T16:28:09;20.20;99.90
14709;DHT22;7445;50.774;4.944;2023-05-07T16:30:44;20.30;99.90
14709;DHT22;7445;50.774;4.944;2023-05-07T16:33:20;20.30;99.90
14709;DHT22;7445;50.774;4.944;2023-05-07T16:35:58;20.20;99.90
14709;DHT22;7445;50.774;4.944;2023-05-07T16:38:36;20.00;99.90
14709;DHT22;7445;50.774;4.944;2023-05-07T16:41:13;20.10;99.90
14709;DHT22;7445;50.774;4.944;2023-05-07T16:43:48;20.10;99.90
14709;DHT22;7445;50.774;4.944;2023-05-07T16:49:33;20.10;99.90
14709;DHT22;7445;50.774;4.944;2023-05-07T16:55:47;19.80;99.90
14709;DHT22;7445;50.774;4.944;2023-05-07T16:58:49;19.90;99.90
14709;DHT22;7445;50.774;4.944;2023-05-07T17:01:52;19.80;99.90
14709;DHT22;7445;50.774;4.944;2023-05-07T17:04:43;19.80;99.90
14709;DHT22;7445;50.774;4.944;2023-05-07T17:07:10;19.70;99.90
14709;DHT22;7445;50.774;4.944;2023-05-07T17:09:36;19.70;99.90
14709;DHT22;7445;50.774;4.944;2023-05-07T17:12:03;19.70;99.90
14709;DHT22;7445;50.774;4.944;2023-05-07T17:14:29;19.70;99.90
14709;DHT22;7445;50.774;4.944;2023-05-07T17:16:55;19.60;99.90
14709;DHT22;7445;50.774;4.944;2023-05-07T17:19:22;19.60;99.90
14709;DHT22;7445;50.774;4.944;2023-05-07T17:21:47;19.60;99.90
14709;DHT22;7445;50.774;4.944;2023-05-07T17:24:13;19.50;99.90
14709;DHT22;7445;50.774;4.944;2023-05-07T17:26:38;19.50;99.90
14709;DHT22;7445;50.774;4.944;2023-05-07T17:29:08;19.40;99.90
14709;DHT22;7445;50.774;4.944;2023-05-07T17:31:33;19.40;99.90
14709;DHT22;7445;50.774;4.944;2023-05-07T17:33:59;19.30;99.90
14709;DHT22;7445;50.774;4.944;2023-05-07T17:36:26;19.30;99.90
14709;DHT22;7445;50.774;4.944;2023-05-07T17:38:51;19.30;99.90
14709;DHT22;7445;50.774;4.944;2023-05-07T17:41:17;19.20;99.90
14709;DHT22;7445;50.774;4.944;2023-05-07T17:43:43;19.10;99.90
14709;DHT22;7445;50.774;4.944;2023-05-07T17:46:09;19.10;99.90
14709;DHT22;7445;50.774;4.944;2023-05-07T17:48:34;19.10;99.90
14709;DHT22;7445;50.774;4.944;2023-05-07T17:51:20;19.10;99.90
14709;DHT22;7445;50.774;4.944;2023-05-07T17:53:46;19.00;99.90
14709;DHT22;7445;50.774;4.944;2023-05-07T17:56:12;18.90;99.90
14709;DHT22;7445;50.774;4.944;2023-05-07T17:58:38;18.90;99.90
14709;DHT22;7445;50.774;4.944;2023-05-07T18:01:03;18.90;99.90
14709;DHT22;7445;50.774;4.944;2023-05-07T18:03:29;18.90;99.90
14709;DHT22;7445;50.774;4.944;2023-05-07T18:05:55;18.80;99.90
14709;DHT22;7445;50.774;4.944;2023-05-07T18:08:21;18.80;99.90
14709;DHT22;7445;50.774;4.944;2023-05-07T18:10:47;18.70;99.90
14709;DHT22;7445;50.774;4.944;2023-05-07T18:13:12;18.80;99.90
14709;DHT22;7445;50.774;4.944;2023-05-07T18:15:38;18.80;99.90
14709;DHT22;7445;50.774;4.944;2023-05-07T18:18:04;18.70;99.90
14709;DHT22;7445;50.774;4.944;2023-05-07T18:20:30;18.60;99.90
14709;DHT22;7445;50.774;4.944;2023-05-07T18:22:55;18.50;99.90
14709;DHT22;7445;50.774;4.944;2023-05-07T18:25:22;18.50;99.90
14709;DHT22;7445;50.774;4.944;2023-05-07T18:27:48;18.40;99.90
14709;DHT22;7445;50.774;4.944;2023-05-07T18:30:14;18.40;99.90
14709;DHT22;7445;50.774;4.944;2023-05-07T18:32:40;18.30;99.90
14709;DHT22;7445;50.774;4.944;2023-05-07T18:35:05;18.30;99.90
14709;DHT22;7445;50.774;4.944;2023-05-07T18:37:32;18.30;99.90
14709;DHT22;7445;50.774;4.944;2023-05-07T18:39:57;18.30;99.90
14709;DHT22;7445;50.774;4.944;2023-05-07T18:42:26;18.20;99.90
14709;DHT22;7445;50.774;4.944;2023-05-07T18:44:54;18.20;99.90
14709;DHT22;7445;50.774;4.944;2023-05-07T18:47:20;18.20;99.90
14709;DHT22;7445;50.774;4.944;2023-05-07T18:49:46;18.20;99.90
14709;DHT22;7445;50.774;4.944;2023-05-07T18:52:11;18.10;99.90
14709;DHT22;7445;50.774;4.944;2023-05-07T18:54:37;18.10;99.90
14709;DHT22;7445;50.774;4.944;2023-05-07T18:57:03;18.10;99.90
14709;DHT22;7445;50.774;4.944;2023-05-07T18:59:28;18.10;99.90
14709;DHT22;7445;50.774;4.944;2023-05-07T19:01:54;18.10;99.90
14709;DHT22;7445;50.774;4.944;2023-05-07T19:04:19;18.00;99.90
14709;DHT22;7445;50.774;4.944;2023-05-07T19:06:46;17.90;99.90
14709;DHT22;7445;50.774;4.944;2023-05-07T19:09:11;17.90;99.90
14709;DHT22;7445;50.774;4.944;2023-05-07T19:11:37;17.80;99.90
14709;DHT22;7445;50.774;4.944;2023-05-07T19:14:04;17.70;99.90
14709;DHT22;7445;50.774;4.944;2023-05-07T19:16:31;17.60;99.90
14709;DHT22;7445;50.774;4.944;2023-05-07T19:18:56;17.50;99.90
14709;DHT22;7445;50.774;4.944;2023-05-07T19:21:24;17.50;99.90
14709;DHT22;7445;50.774;4.944;2023-05-07T19:23:54;17.60;99.90
14709;DHT22;7445;50.774;4.944;2023-05-07T19:26:42;17.50;99.90
14709;DHT22;7445;50.774;4.944;2023-05-07T19:29:13;17.60;99.90
14709;DHT22;7445;50.774;4.944;2023-05-07T19:31:41;17.60;99.90
14709;DHT22;7445;50.774;4.944;2023-05-07T19:34:08;17.60;99.90
14709;DHT22;7445;50.774;4.944;2023-05-07T19:36:47;17.60;99.90
14709;DHT22;7445;50.774;4.944;2023-05-07T19:39:26;17.60;99.90
14709;DHT22;7445;50.774;4.944;2023-05-07T19:41:56;17.60;99.90
14709;DHT22;7445;50.774;4.944;2023-05-07T19:44:26;17.50;99.90
14709;DHT22;7445;50.774;4.944;2023-05-07T19:46:56;17.50;99.90
14709;DHT22;7445;50.774;4.944;2023-05-07T19:49:25;17.50;99.90
14709;DHT22;7445;50.774;4.944;2023-05-07T19:52:02;17.50;99.90
14709;DHT22;7445;50.774;4.944;2023-05-07T19:54:30;17.40;99.90
14709;DHT22;7445;50.774;4.944;2023-05-07T19:56:59;17.30;99.90
14709;DHT22;7445;50.774;4.944;2023-05-07T19:59:31;17.30;99.90
14709;DHT22;7445;50.774;4.944;2023-05-07T20:01:59;17.40;99.90
14709;DHT22;7445;50.774;4.944;2023-05-07T20:04:28;17.30;99.90
14709;DHT22;7445;50.774;4.944;2023-05-07T20:06:58;17.30;99.90
14709;DHT22;7445;50.774;4.944;2023-05-07T20:09:25;17.30;99.90
14709;DHT22;7445;50.774;4.944;2023-05-07T20:11:51;17.20;99.90
14709;DHT22;7445;50.774;4.944;2023-05-07T20:14:17;17.20;99.90
14709;DHT22;7445;50.774;4.944;2023-05-07T20:16:43;17.20;99.90
14709;DHT22;7445;50.774;4.944;2023-05-07T20:19:10;17.20;99.90
14709;DHT22;7445;50.774;4.944;2023-05-07T20:21:36;17.20;99.90
14709;DHT22;7445;50.774;4.944;2023-05-07T20:24:03;17.20;99.90
14709;DHT22;7445;50.774;4.944;2023-05-07T20:26:29;17.20;99.90
14709;DHT22;7445;50.774;4.944;2023-05-07T20:28:56;17.20;99.90
14709;DHT22;7445;50.774;4.944;2023-05-07T20:31:22;17.20;99.90
14709;DHT22;7445;50.774;4.944;2023-05-07T20:33:48;17.20;99.90
14709;DHT22;7445;50.774;4.944;2023-05-07T20:36:14;17.10;99.90
14709;DHT22;7445;50.774;4.944;2023-05-07T20:38:39;17.10;99.90
14709;DHT22;7445;50.774;4.944;2023-05-07T20:41:09;17.10;99.90
